createdAt,value
2022-09-30T00:01:51.578Z,82.78
2022-09-30T00:04:22.728Z,83.09
2022-09-30T00:06:52.274Z,83.26
2022-09-30T00:09:20.007Z,83.32
2022-09-30T00:11:47.668Z,82.74
2022-09-30T00:14:20.897Z,83.14
2022-09-30T00:16:48.644Z,83.06
2022-09-30T00:19:16.285Z,83.43
2022-09-30T00:21:43.805Z,83.02
2022-09-30T00:24:11.344Z,82.78
2022-09-30T00:26:38.592Z,83.60
2022-09-30T00:29:06.168Z,83.32
2022-09-30T00:31:34.529Z,83.03
2022-09-30T00:34:08.314Z,83.25
2022-09-30T00:36:36.045Z,82.95
2022-09-30T00:39:04.785Z,83.09
2022-09-30T00:41:32.666Z,83.65
2022-09-30T00:44:00.103Z,83.63
2022-09-30T00:46:40.992Z,83.16
2022-09-30T00:49:20.828Z,83.67
2022-09-30T00:51:51.153Z,83.67
2022-09-30T00:54:22.114Z,83.40
2022-09-30T00:56:56.091Z,83.89
2022-09-30T00:59:26.296Z,83.70
2022-09-30T01:01:53.806Z,83.42
2022-09-30T01:04:22.539Z,82.90
2022-09-30T01:06:50.555Z,83.33
2022-09-30T01:09:18.703Z,83.35
2022-09-30T01:11:46.899Z,83.21
2022-09-30T01:14:16.728Z,83.17
2022-09-30T01:16:44.019Z,83.01
2022-09-30T01:19:14.215Z,83.75
2022-09-30T01:22:00.173Z,84.01
2022-09-30T01:24:27.564Z,83.53
2022-09-30T01:26:57.488Z,83.64
2022-09-30T01:29:43.284Z,83.45
2022-09-30T01:32:23.074Z,83.55
2022-09-30T01:35:00.325Z,84.39
2022-09-30T01:37:37.117Z,83.59
2022-09-30T01:40:23.636Z,84.01
2022-09-30T01:43:00.986Z,83.64
2022-09-30T01:45:34.277Z,84.45
2022-09-30T01:48:16.872Z,83.45
2022-09-30T01:50:53.404Z,84.24
2022-09-30T01:53:25.316Z,83.53
2022-09-30T01:56:13.069Z,83.90
2022-09-30T01:58:43.339Z,83.89
2022-09-30T02:01:20.382Z,83.96
2022-09-30T02:03:54.014Z,83.91
2022-09-30T02:06:24.548Z,83.74
2022-09-30T02:08:56.750Z,83.85
2022-09-30T02:11:27.198Z,84.44
2022-09-30T02:13:58.445Z,83.96
2022-09-30T02:16:51.840Z,83.82
2022-09-30T02:19:23.419Z,84.31
2022-09-30T02:22:01.489Z,83.73
2022-09-30T02:24:32.237Z,83.66
2022-09-30T02:27:02.026Z,84.15
2022-09-30T02:29:31.492Z,83.84
2022-09-30T02:32:01.889Z,84.63
2022-09-30T02:34:33.095Z,84.07
2022-09-30T02:37:05.948Z,84.20
2022-09-30T02:39:53.802Z,84.71
2022-09-30T02:42:24.446Z,84.47
2022-09-30T02:44:52.829Z,84.68
2022-09-30T02:47:23.057Z,84.75
2022-09-30T02:49:54.969Z,84.91
2022-09-30T02:52:28.946Z,84.62
2022-09-30T02:55:15.094Z,84.21
2022-09-30T02:57:45.609Z,84.81
2022-09-30T03:00:14.012Z,85.11
2022-09-30T03:02:41.901Z,84.81
2022-09-30T03:05:10.135Z,84.30
2022-09-30T03:07:38.035Z,84.12
2022-09-30T03:10:12.787Z,84.79
2022-09-30T03:12:40.016Z,84.25
2022-09-30T03:15:13.966Z,84.67
2022-09-30T03:18:00.220Z,84.29
2022-09-30T03:20:28.248Z,84.50
2022-09-30T03:22:55.410Z,83.93
2022-09-30T03:25:32.880Z,84.66
2022-09-30T03:28:18.544Z,84.65
2022-09-30T03:30:48.805Z,84.43
2022-09-30T03:33:34.901Z,84.51
2022-09-30T03:36:20.499Z,85.07
2022-09-30T03:39:02.301Z,84.21
2022-09-30T03:41:29.935Z,84.42
2022-09-30T03:44:10.016Z,84.54
2022-09-30T03:46:42.331Z,84.43
2022-09-30T03:49:22.001Z,84.20
2022-09-30T03:51:51.049Z,84.63
2022-09-30T03:54:18.270Z,83.87
2022-09-30T03:56:45.448Z,84.37
2022-09-30T03:59:24.331Z,84.37
2022-09-30T04:01:51.977Z,84.05
2022-09-30T04:04:19.393Z,84.07
2022-09-30T04:06:47.554Z,84.54
2022-09-30T04:09:14.932Z,85.14
2022-09-30T04:11:42.951Z,84.02
2022-09-30T04:14:10.297Z,84.30
2022-09-30T04:16:37.638Z,84.84
2022-09-30T04:19:05.005Z,84.47
2022-09-30T04:21:32.434Z,84.47
2022-09-30T04:23:59.551Z,83.81
2022-09-30T04:26:26.861Z,84.36
2022-09-30T04:28:55.214Z,84.07
2022-09-30T04:31:22.301Z,83.75
2022-09-30T04:33:50.822Z,83.38
2022-09-30T04:36:18.464Z,83.33
2022-09-30T04:38:45.741Z,83.66
2022-09-30T04:41:16.249Z,83.97
2022-09-30T04:43:47.146Z,83.91
2022-09-30T04:46:15.085Z,83.84
2022-09-30T04:48:45.984Z,83.32
2022-09-30T04:51:14.471Z,83.92
2022-09-30T04:53:42.401Z,84.43
2022-09-30T04:56:09.775Z,83.33
2022-09-30T04:58:37.879Z,83.73
2022-09-30T05:01:06.338Z,83.75
2022-09-30T05:03:33.926Z,83.15
2022-09-30T05:06:02.881Z,84.04
2022-09-30T05:08:30.466Z,83.93
2022-09-30T05:10:58.606Z,83.26
2022-09-30T05:13:26.891Z,83.20
2022-09-30T05:15:54.057Z,83.33
2022-09-30T05:18:21.716Z,83.68
2022-09-30T05:20:49.664Z,83.00
2022-09-30T05:23:17.548Z,83.22
2022-09-30T05:25:44.829Z,83.54
2022-09-30T05:28:12.785Z,83.36
2022-09-30T05:30:42.149Z,83.47
2022-09-30T05:33:09.822Z,83.23
2022-09-30T05:35:37.145Z,82.84
2022-09-30T05:38:04.900Z,83.08
2022-09-30T05:40:32.092Z,82.90
2022-09-30T05:42:59.703Z,82.02
2022-09-30T05:45:27.012Z,82.54
2022-09-30T05:47:54.773Z,82.56
2022-09-30T05:50:23.036Z,81.86
2022-09-30T05:52:50.294Z,81.65
2022-09-30T05:55:17.976Z,81.21
2022-09-30T05:57:48.308Z,81.59
2022-09-30T06:00:15.573Z,81.22
2022-09-30T06:02:43.396Z,81.79
2022-09-30T06:05:11.760Z,81.77
2022-09-30T06:07:39.469Z,81.76
2022-09-30T06:10:08.098Z,81.83
2022-09-30T06:12:37.561Z,81.38
2022-09-30T06:15:05.022Z,81.55
2022-09-30T06:17:32.441Z,81.68
2022-09-30T06:20:01.297Z,81.17
2022-09-30T06:22:29.853Z,81.04
2022-09-30T06:24:57.347Z,80.63
2022-09-30T06:27:25.433Z,80.29
2022-09-30T06:29:52.684Z,80.01
2022-09-30T06:32:20.061Z,80.01
2022-09-30T06:34:48.065Z,79.47
2022-09-30T06:37:16.256Z,79.67
2022-09-30T06:39:43.520Z,79.35
2022-09-30T06:42:12.562Z,79.58
2022-09-30T06:44:50.999Z,78.67
2022-09-30T06:47:25.160Z,78.45
2022-09-30T06:49:54.661Z,78.11
2022-09-30T06:52:22.607Z,77.71
2022-09-30T06:54:51.395Z,76.85
2022-09-30T06:57:22.640Z,75.98
2022-09-30T06:59:50.587Z,74.37
2022-09-30T07:02:17.818Z,74.22
2022-09-30T07:04:44.970Z,74.01
2022-09-30T07:07:12.691Z,72.96
2022-09-30T07:09:40.344Z,73.14
2022-09-30T07:12:07.610Z,71.63
2022-09-30T07:14:36.273Z,71.13
2022-09-30T07:17:04.810Z,71.00
2022-09-30T07:19:34.679Z,69.59
2022-09-30T07:22:22.140Z,68.80
2022-09-30T07:24:49.333Z,67.57
2022-09-30T07:27:16.824Z,66.23
2022-09-30T07:30:07.540Z,64.82
2022-09-30T07:32:32.545Z,62.54
2022-09-30T07:34:59.841Z,61.73
2022-09-30T07:37:27.471Z,65.30
2022-09-30T07:39:54.800Z,65.72
2022-09-30T07:42:23.201Z,66.16
2022-09-30T07:44:52.265Z,66.69
2022-09-30T07:47:20.415Z,67.48
2022-09-30T07:49:48.076Z,67.46
2022-09-30T07:52:15.632Z,68.11
2022-09-30T07:54:48.062Z,68.07
2022-09-30T07:57:17.133Z,67.07
2022-09-30T07:59:44.612Z,67.30
2022-09-30T08:02:14.412Z,67.43
2022-09-30T08:04:44.340Z,67.48
2022-09-30T08:07:13.138Z,67.37
2022-09-30T08:09:40.488Z,66.96
2022-09-30T08:12:07.791Z,66.55
2022-09-30T08:14:35.371Z,66.85
2022-09-30T08:17:02.587Z,66.88
2022-09-30T08:19:31.004Z,67.20
2022-09-30T08:21:58.608Z,66.63
2022-09-30T08:24:26.668Z,65.95
2022-09-30T08:26:54.414Z,65.55
2022-09-30T08:29:49.997Z,65.33
2022-09-30T08:32:09.868Z,65.62
2022-09-30T08:34:37.173Z,65.85
2022-09-30T08:37:08.891Z,65.84
2022-09-30T08:39:37.669Z,66.34
2022-09-30T08:42:41.323Z,66.10
2022-09-30T08:45:20.481Z,66.37
2022-09-30T08:47:53.398Z,66.90
2022-09-30T08:50:21.042Z,66.98
2022-09-30T08:52:50.275Z,66.97
2022-09-30T08:55:25.198Z,66.82
2022-09-30T08:57:53.661Z,67.19
2022-09-30T09:00:22.089Z,67.11
2022-09-30T09:02:58.071Z,67.17
2022-09-30T09:05:32.881Z,67.33
2022-09-30T09:08:19.044Z,67.22
2022-09-30T09:10:47.081Z,66.40
2022-09-30T09:13:24.361Z,66.26
2022-09-30T09:16:03.342Z,66.25
2022-09-30T09:18:42.854Z,66.48
2022-09-30T09:21:20.694Z,66.79
2022-09-30T09:23:49.435Z,66.63
2022-09-30T09:26:17.162Z,66.29
2022-09-30T09:28:44.550Z,66.17
2022-09-30T09:31:14.497Z,66.32
2022-09-30T09:33:42.348Z,66.96
2022-09-30T09:36:24.974Z,67.10
2022-09-30T09:38:52.144Z,67.24
2022-09-30T09:41:26.208Z,67.33
2022-09-30T09:44:12.109Z,67.34
2022-09-30T09:46:48.428Z,67.21
2022-09-30T09:49:20.946Z,67.31
2022-09-30T09:51:51.534Z,66.92
2022-09-30T09:54:20.684Z,66.96
2022-09-30T09:56:47.956Z,67.60
2022-09-30T09:59:20.167Z,67.92
2022-09-30T10:01:51.689Z,67.27
2022-09-30T10:04:24.528Z,66.40
2022-09-30T10:06:54.214Z,66.68
2022-09-30T10:09:54.023Z,66.34
2022-09-30T10:12:28.472Z,66.77
2022-09-30T10:15:00.652Z,66.92
2022-09-30T10:17:30.055Z,67.49
2022-09-30T10:20:08.536Z,67.18
2022-09-30T10:22:36.664Z,66.40
2022-09-30T10:25:10.310Z,66.87
2022-09-30T10:27:37.669Z,67.16
2022-09-30T10:30:05.090Z,67.29
2022-09-30T10:32:32.897Z,67.71
2022-09-30T10:35:04.681Z,67.48
2022-09-30T10:37:32.161Z,67.58
2022-09-30T10:40:02.457Z,67.85
2022-09-30T10:42:33.196Z,67.85
2022-09-30T10:45:19.110Z,67.69
2022-09-30T10:47:48.882Z,67.76
2022-09-30T10:50:20.833Z,67.94
2022-09-30T10:52:55.777Z,68.18
2022-09-30T10:55:23.210Z,68.28
2022-09-30T10:57:52.333Z,68.16
2022-09-30T11:00:22.015Z,67.95
2022-09-30T11:02:55.396Z,68.32
2022-09-30T11:05:24.653Z,68.18
2022-09-30T11:08:02.910Z,67.83
2022-09-30T11:10:33.266Z,67.23
2022-09-30T11:13:19.262Z,67.05
2022-09-30T11:16:05.648Z,67.44
2022-09-30T11:18:55.984Z,66.76
2022-09-30T11:21:28.266Z,67.42
2022-09-30T11:24:14.754Z,66.95
2022-09-30T11:27:00.723Z,67.27
2022-09-30T11:29:34.057Z,67.16
2022-09-30T11:32:01.716Z,67.71
2022-09-30T11:34:43.579Z,67.47
2022-09-30T11:37:16.507Z,67.31
2022-09-30T11:39:49.772Z,67.08
2022-09-30T11:42:26.512Z,67.33
2022-09-30T11:45:09.483Z,66.70
2022-09-30T11:48:01.001Z,66.85
2022-09-30T11:50:28.380Z,66.84
2022-09-30T11:53:08.170Z,66.76
2022-09-30T11:55:57.825Z,67.07
2022-09-30T11:58:41.112Z,66.33
2022-09-30T12:01:22.204Z,66.18
2022-09-30T12:03:57.905Z,65.95
2022-09-30T12:06:29.234Z,66.31
2022-09-30T12:09:00.114Z,66.55
2022-09-30T12:11:40.451Z,66.98
2022-09-30T12:14:14.043Z,66.91
2022-09-30T12:16:41.596Z,66.78
2022-09-30T12:19:15.660Z,67.00
2022-09-30T12:21:56.373Z,67.36
2022-09-30T12:24:29.586Z,67.50
2022-09-30T12:26:57.123Z,67.27
2022-09-30T12:29:43.117Z,67.19
2022-09-30T12:32:16.315Z,67.49
2022-09-30T12:34:48.408Z,67.59
2022-09-30T12:37:24.724Z,67.49
2022-09-30T12:40:01.892Z,67.88
2022-09-30T12:42:40.061Z,68.06
2022-09-30T12:45:25.899Z,68.16
2022-09-30T12:47:55.880Z,68.33
2022-09-30T12:50:26.990Z,68.69
2022-09-30T12:52:57.770Z,68.50
2022-09-30T12:55:31.342Z,68.38
2022-09-30T12:58:01.561Z,68.39
2022-09-30T13:00:34.926Z,68.25
2022-09-30T13:03:07.676Z,67.63
2022-09-30T13:05:35.140Z,68.20
2022-09-30T13:08:25.249Z,68.41
2022-09-30T13:11:00.374Z,68.81
2022-09-30T13:13:29.400Z,68.91
2022-09-30T13:16:03.085Z,69.22
2022-09-30T13:18:30.909Z,69.00
2022-09-30T13:21:10.883Z,69.00
2022-09-30T13:23:45.462Z,69.11
2022-09-30T13:26:25.134Z,69.16
2022-09-30T13:28:53.320Z,69.47
2022-09-30T13:31:21.990Z,69.54
2022-09-30T13:34:04.533Z,69.84
2022-09-30T13:36:32.281Z,70.03
2022-09-30T13:39:20.800Z,69.86
2022-09-30T13:42:01.018Z,70.24
2022-09-30T13:44:38.702Z,70.46
2022-09-30T13:47:10.489Z,70.55
2022-09-30T13:49:53.828Z,70.93
2022-09-30T13:52:33.236Z,70.81
2022-09-30T13:55:04.579Z,70.96
2022-09-30T13:57:45.525Z,70.93
2022-09-30T14:00:16.113Z,71.04
2022-09-30T14:02:48.289Z,70.99
2022-09-30T14:05:21.525Z,70.98
2022-09-30T14:07:54.682Z,71.08
2022-09-30T14:10:37.262Z,71.36
2022-09-30T14:13:23.412Z,71.37
2022-09-30T14:15:57.582Z,71.49
2022-09-30T14:18:27.748Z,71.66
2022-09-30T14:21:11.481Z,71.47
2022-09-30T14:23:39.593Z,71.55
2022-09-30T14:26:15.611Z,71.72
2022-09-30T14:28:52.009Z,71.67
2022-09-30T14:31:19.782Z,71.61
2022-09-30T14:33:49.203Z,71.65
2022-09-30T14:39:03.070Z,71.86
2022-09-30T14:41:31.545Z,71.89
2022-09-30T14:44:05.345Z,72.05
2022-09-30T14:46:35.816Z,71.97
2022-09-30T14:49:06.940Z,71.97
2022-09-30T14:51:38.529Z,72.07
2022-09-30T14:54:15.872Z,71.93
2022-09-30T14:56:43.097Z,72.15
2022-09-30T14:59:17.150Z,72.11
2022-09-30T15:01:45.570Z,72.17
2022-09-30T15:04:15.689Z,72.30
2022-09-30T15:06:47.979Z,72.56
2022-09-30T15:09:17.558Z,72.59
2022-09-30T15:11:44.918Z,72.64
2022-09-30T15:14:16.694Z,72.80
2022-09-30T15:16:50.207Z,73.02
2022-09-30T15:19:22.964Z,73.00
2022-09-30T15:21:57.810Z,72.94
2022-09-30T15:24:27.563Z,73.24
2022-09-30T15:26:55.675Z,73.43
2022-09-30T15:29:22.732Z,73.63
2022-09-30T15:31:53.765Z,73.93
2022-09-30T15:34:24.294Z,73.79
2022-09-30T15:37:17.742Z,73.88
2022-09-30T15:40:05.535Z,73.78
2022-09-30T15:42:39.888Z,73.79
2022-09-30T15:45:32.106Z,73.91
2022-09-30T15:48:02.818Z,73.93
2022-09-30T15:50:36.294Z,73.99
2022-09-30T15:53:25.637Z,73.86
2022-09-30T15:55:55.847Z,74.03
2022-09-30T15:58:33.937Z,74.41
2022-09-30T16:01:17.703Z,74.59
2022-09-30T16:03:49.813Z,74.90
2022-09-30T16:06:20.537Z,75.15
2022-09-30T16:08:49.040Z,75.09
2022-09-30T16:11:24.476Z,75.23
2022-09-30T16:13:51.981Z,75.29
2022-09-30T16:16:21.476Z,75.30
2022-09-30T16:18:49.992Z,75.62
2022-09-30T16:21:52.253Z,75.69
2022-09-30T16:24:22.505Z,75.80
2022-09-30T16:26:50.195Z,75.78
2022-09-30T16:29:18.073Z,75.83
2022-09-30T16:31:46.789Z,75.72
2022-09-30T16:34:24.878Z,75.77
2022-09-30T16:36:53.930Z,76.16
2022-09-30T16:39:21.697Z,76.47
2022-09-30T16:41:49.947Z,76.52
2022-09-30T16:44:17.018Z,76.32
2022-09-30T16:46:44.025Z,76.29
2022-09-30T16:49:18.496Z,76.15
2022-09-30T16:51:45.935Z,76.21
2022-09-30T16:54:13.125Z,76.48
2022-09-30T16:56:40.450Z,76.29
2022-09-30T16:59:14.060Z,76.43
2022-09-30T17:01:42.038Z,76.91
2022-09-30T17:04:12.974Z,76.85
2022-09-30T17:06:43.046Z,76.85
2022-09-30T17:09:10.408Z,77.08
2022-09-30T17:11:47.451Z,76.97
2022-09-30T17:14:15.778Z,76.99
2022-09-30T17:16:43.531Z,77.21
2022-09-30T17:19:12.952Z,77.27
2022-09-30T17:21:41.900Z,77.24
2022-09-30T17:24:12.977Z,77.03
2022-09-30T17:26:46.199Z,76.97
2022-09-30T17:29:31.425Z,77.28
2022-09-30T17:32:02.835Z,77.06
2022-09-30T17:34:32.718Z,76.90
2022-09-30T17:37:00.191Z,76.87
2022-09-30T17:39:28.298Z,77.08
2022-09-30T17:42:14.366Z,77.02
2022-09-30T17:44:52.798Z,77.02
2022-09-30T17:47:22.357Z,77.01
2022-09-30T17:50:00.343Z,76.92
2022-09-30T17:52:34.470Z,77.24
2022-09-30T17:55:02.110Z,77.34
2022-09-30T17:57:36.615Z,77.40
2022-09-30T18:00:09.428Z,77.39
2022-09-30T18:02:37.970Z,77.32
2022-09-30T18:05:14.988Z,77.17
2022-09-30T18:07:42.742Z,77.31
2022-09-30T18:10:13.144Z,77.05
2022-09-30T18:12:49.741Z,77.19
2022-09-30T18:15:18.529Z,77.03
2022-09-30T18:17:55.908Z,77.35
2022-09-30T18:20:35.306Z,77.40
2022-09-30T18:23:03.558Z,77.30
2022-09-30T18:25:34.165Z,77.65
2022-09-30T18:28:01.992Z,77.44
2022-09-30T18:30:36.389Z,77.60
2022-09-30T18:33:10.129Z,77.63
2022-09-30T18:35:58.105Z,77.69
2022-09-30T18:38:34.785Z,77.75
2022-09-30T18:41:08.130Z,77.78
2022-09-30T18:43:40.388Z,77.73
2022-09-30T18:46:11.000Z,77.77
2022-09-30T18:48:46.271Z,77.94
2022-09-30T18:51:18.888Z,77.65
2022-09-30T18:53:57.902Z,77.97
2022-09-30T18:56:46.445Z,77.91
2022-09-30T18:59:23.368Z,78.03
2022-09-30T19:02:03.349Z,77.95
2022-09-30T19:04:33.770Z,77.78
2022-09-30T19:07:03.330Z,77.84
2022-09-30T19:09:33.376Z,78.15
2022-09-30T19:12:02.240Z,78.20
2022-09-30T19:14:32.715Z,78.25
2022-09-30T19:17:00.512Z,78.35
2022-09-30T19:19:27.855Z,78.24
2022-09-30T19:22:12.484Z,78.21
2022-09-30T19:24:40.251Z,78.18
2022-09-30T19:27:18.888Z,78.26
2022-09-30T19:29:57.221Z,78.22
2022-09-30T19:32:37.045Z,78.09
2022-09-30T19:35:08.359Z,78.05
2022-09-30T19:37:36.043Z,78.13
2022-09-30T19:40:20.557Z,78.02
2022-09-30T19:42:51.941Z,78.11
2022-09-30T19:45:26.052Z,78.35
2022-09-30T19:47:54.324Z,78.51
2022-09-30T19:50:21.504Z,78.41
2022-09-30T19:53:00.249Z,78.45
2022-09-30T19:55:27.917Z,78.51
2022-09-30T19:57:55.329Z,78.49
2022-09-30T20:00:27.337Z,78.68
2022-09-30T20:03:03.834Z,78.57
2022-09-30T20:05:31.238Z,78.59
2022-09-30T20:07:59.617Z,78.91
2022-09-30T20:10:29.193Z,78.51
2022-09-30T20:12:57.458Z,78.67
2022-09-30T20:15:46.889Z,78.68
2022-09-30T20:18:14.783Z,78.60
2022-09-30T20:20:55.056Z,78.58
2022-09-30T20:23:23.313Z,78.58
2022-09-30T20:26:05.652Z,78.49
2022-09-30T20:28:39.928Z,78.67
2022-09-30T20:31:31.767Z,78.42
2022-09-30T20:34:03.424Z,78.47
2022-09-30T20:36:31.415Z,78.47
2022-09-30T20:39:00.586Z,78.61
2022-09-30T20:41:28.624Z,78.65
2022-09-30T20:44:05.632Z,78.70
2022-09-30T20:46:33.460Z,78.77
2022-09-30T20:49:10.600Z,78.78
2022-09-30T20:51:40.243Z,78.79
2022-09-30T20:54:07.805Z,78.72
2022-09-30T20:57:02.448Z,78.77
2022-09-30T20:59:23.487Z,78.72
2022-09-30T21:01:51.006Z,78.73
2022-09-30T21:04:24.082Z,78.66
2022-09-30T21:06:57.085Z,78.68
2022-09-30T21:09:26.443Z,78.75
2022-09-30T21:12:00.363Z,78.80
2022-09-30T21:14:32.112Z,78.49
2022-09-30T21:17:01.878Z,78.84
2022-09-30T21:19:32.229Z,78.74
2022-09-30T21:22:01.582Z,78.60
2022-09-30T21:24:35.794Z,78.52
2022-09-30T21:27:16.125Z,78.68
2022-09-30T21:29:46.519Z,78.53
2022-09-30T21:32:17.094Z,78.57
2022-09-30T21:34:49.137Z,78.63
2022-09-30T21:37:27.452Z,78.54
2022-09-30T21:39:59.134Z,78.49
2022-09-30T21:42:27.266Z,78.58
2022-09-30T21:44:56.617Z,78.70
2022-09-30T21:47:33.554Z,78.69
2022-09-30T21:50:07.408Z,78.52
2022-09-30T21:52:41.989Z,78.54
2022-09-30T21:55:35.757Z,78.63
2022-09-30T21:58:14.067Z,78.54
2022-09-30T22:00:50.906Z,78.68
2022-09-30T22:03:24.824Z,78.55
2022-09-30T22:05:56.034Z,78.63
2022-09-30T22:08:23.398Z,78.75
2022-09-30T22:10:51.210Z,78.69
2022-09-30T22:13:18.869Z,78.62
2022-09-30T22:15:46.481Z,78.49
2022-09-30T22:18:18.232Z,78.37
2022-09-30T22:20:46.254Z,78.51
2022-09-30T22:23:15.051Z,78.44
2022-09-30T22:25:42.385Z,78.59
2022-09-30T22:28:10.555Z,78.56
2022-09-30T22:30:38.085Z,78.73
2022-09-30T22:33:24.163Z,78.53
2022-09-30T22:36:09.650Z,78.60
2022-09-30T22:38:37.720Z,78.54
2022-09-30T22:41:04.985Z,78.49
2022-09-30T22:43:32.866Z,78.54
2022-09-30T22:46:03.931Z,78.51
2022-09-30T22:48:31.326Z,78.44
2022-09-30T22:50:59.043Z,78.73
2022-09-30T22:53:27.169Z,78.71
2022-09-30T22:55:54.831Z,78.69
2022-09-30T22:58:24.405Z,78.75
2022-09-30T23:00:53.048Z,78.86
2022-09-30T23:03:20.278Z,78.86
2022-09-30T23:05:47.685Z,78.69
2022-09-30T23:08:15.178Z,78.79
2022-09-30T23:10:49.971Z,78.69
2022-09-30T23:13:22.239Z,78.85
2022-09-30T23:15:49.405Z,78.92
2022-09-30T23:18:18.873Z,78.80
2022-09-30T23:20:56.340Z,78.64
2022-09-30T23:23:23.796Z,78.54
2022-09-30T23:25:59.833Z,78.66
2022-09-30T23:28:27.650Z,78.36
2022-09-30T23:30:55.319Z,78.89
2022-09-30T23:33:22.572Z,78.74
2022-09-30T23:35:49.921Z,78.75
2022-09-30T23:38:18.089Z,78.89
2022-09-30T23:40:46.718Z,78.91
2022-09-30T23:43:14.701Z,78.91
2022-09-30T23:45:42.052Z,78.88
2022-09-30T23:48:09.547Z,78.86
2022-09-30T23:50:36.896Z,78.80
2022-09-30T23:53:04.048Z,78.92
2022-09-30T23:55:31.624Z,79.09
2022-09-30T23:57:58.861Z,79.45
